Terminal Aerodrome Forecast
Issued by NWS Sioux Falls, SD

Home | Current Version | Previous Version | Text Only | Print | Product List | Glossary On
Versions: 1 2 3 4 5 6 7 8 9 10 11 12 13 14 15 16 17 18 19 20 21 22 23 24
385
FTUS43 KFSD 230624 AAA
TAFHON
TAF AMD
KHON 230624Z 2306/2406 33009KT P6SM VCTS OVC019CB
     FM231700 02009KT P6SM SHRA VCTS OVC025CB
     FM232100 35009KT 5SM SHRA VCTS OVC020CB
     FM240000 02009KT 5SM SHRA OVC015
     FM240300 04008KT 4SM SHRA OVC008=

USA.gov is the U.S. government's official web portal to all federal, state and local government web resources and services.